createdAt,value
2023-03-26T00:00:53.044Z,974.68
2023-03-26T00:01:53.073Z,974.70
2023-03-26T00:02:53.156Z,974.63
2023-03-26T00:03:53.047Z,974.70
2023-03-26T00:04:53.021Z,974.69
2023-03-26T00:05:53.164Z,974.71
2023-03-26T00:06:53.023Z,974.68
2023-03-26T00:07:53.023Z,974.69
2023-03-26T00:08:52.998Z,974.74
2023-03-26T00:09:53.036Z,974.72
2023-03-26T00:10:53.039Z,974.74
2023-03-26T00:11:53.007Z,974.72
2023-03-26T00:12:52.988Z,974.76
2023-03-26T00:13:53.014Z,974.76
2023-03-26T00:14:52.988Z,974.74
2023-03-26T00:15:53.346Z,974.78
2023-03-26T00:16:53.042Z,974.75
2023-03-26T00:17:53.010Z,974.77
2023-03-26T00:18:52.975Z,974.71
2023-03-26T00:19:52.942Z,974.75
2023-03-26T00:20:52.932Z,974.72
2023-03-26T00:21:52.955Z,974.75
2023-03-26T00:22:52.919Z,974.76
2023-03-26T00:23:52.979Z,974.73
2023-03-26T00:24:52.900Z,974.67
2023-03-26T00:25:53.103Z,974.68
2023-03-26T00:26:52.883Z,974.73
2023-03-26T00:27:52.887Z,974.74
2023-03-26T00:28:52.876Z,974.72
2023-03-26T00:29:52.894Z,974.74
2023-03-26T00:30:52.898Z,974.73
2023-03-26T00:31:52.855Z,974.73
2023-03-26T00:32:53.399Z,974.75
2023-03-26T00:33:52.858Z,974.73
2023-03-26T00:34:52.880Z,974.72
2023-03-26T00:35:53.050Z,974.72
2023-03-26T00:36:52.841Z,974.70
2023-03-26T00:37:52.833Z,974.73
2023-03-26T00:38:52.796Z,974.68
2023-03-26T00:39:52.875Z,974.64
2023-03-26T00:40:53.808Z,974.66
2023-03-26T00:41:52.815Z,974.64
2023-03-26T00:42:52.770Z,974.71
2023-03-26T00:43:52.796Z,974.69
2023-03-26T00:44:52.797Z,974.73
2023-03-26T00:45:53.191Z,974.68
2023-03-26T00:46:52.791Z,974.68
2023-03-26T00:47:52.801Z,974.70
2023-03-26T00:48:52.737Z,974.66
2023-03-26T00:49:52.746Z,974.67
2023-03-26T00:50:52.720Z,974.65
2023-03-26T00:51:52.743Z,974.67
2023-03-26T00:52:52.733Z,974.62
2023-03-26T00:53:52.738Z,974.66
2023-03-26T00:54:52.706Z,974.64
2023-03-26T00:55:52.841Z,974.65
2023-03-26T00:56:52.746Z,974.63
2023-03-26T00:57:52.698Z,974.62
2023-03-26T00:58:52.679Z,974.63
2023-03-26T00:59:52.705Z,974.65
2023-03-26T01:00:52.670Z,974.64
2023-03-26T01:01:52.717Z,974.64
2023-03-26T01:02:52.729Z,974.65
2023-03-26T01:04:06.734Z,974.61
2023-03-26T01:04:53.655Z,974.62
2023-03-26T01:05:53.027Z,974.62
2023-03-26T01:06:52.649Z,974.66
2023-03-26T01:07:52.632Z,974.63
2023-03-26T01:08:52.624Z,974.68
2023-03-26T01:09:52.662Z,974.62
2023-03-26T01:10:52.635Z,974.64
2023-03-26T01:11:52.612Z,974.70
2023-03-26T01:12:52.594Z,974.72
2023-03-26T01:13:52.615Z,974.67
2023-03-26T01:14:52.581Z,974.71
2023-03-26T01:15:52.890Z,974.70
2023-03-26T01:16:52.708Z,974.68
2023-03-26T01:17:52.633Z,974.73
2023-03-26T01:18:52.571Z,974.75
2023-03-26T01:19:52.610Z,974.72
2023-03-26T01:20:52.539Z,974.73
2023-03-26T01:21:52.590Z,974.75
2023-03-26T01:22:52.563Z,974.75
2023-03-26T01:23:52.581Z,974.76
2023-03-26T01:24:52.572Z,974.80
2023-03-26T01:25:52.822Z,974.80
2023-03-26T01:26:52.512Z,974.73
2023-03-26T01:27:52.539Z,974.69
2023-03-26T01:28:52.485Z,974.72
2023-03-26T01:29:52.587Z,974.72
2023-03-26T01:30:52.466Z,974.67
2023-03-26T01:31:52.492Z,974.64
2023-03-26T01:32:52.523Z,974.64
2023-03-26T01:33:52.492Z,974.66
2023-03-26T01:34:52.468Z,974.72
2023-03-26T01:35:52.629Z,974.69
2023-03-26T01:36:52.436Z,974.68
2023-03-26T01:37:52.542Z,974.71
2023-03-26T01:38:52.422Z,974.71
2023-03-26T01:39:52.442Z,974.72
2023-03-26T01:40:52.453Z,974.72
2023-03-26T01:41:52.416Z,974.71
2023-03-26T01:42:52.405Z,974.70
2023-03-26T01:43:52.416Z,974.70
2023-03-26T01:44:52.378Z,974.71
2023-03-26T01:45:52.697Z,974.72
2023-03-26T01:46:52.546Z,974.71
2023-03-26T01:47:52.506Z,974.70
2023-03-26T01:48:52.365Z,974.72
2023-03-26T01:49:52.373Z,974.70
2023-03-26T01:50:52.352Z,974.72
2023-03-26T01:51:52.347Z,974.71
2023-03-26T01:52:52.324Z,974.71
2023-03-26T01:53:52.340Z,974.72
2023-03-26T01:54:52.322Z,974.70
2023-03-26T01:55:52.491Z,974.74
2023-03-26T01:56:52.365Z,974.65
2023-03-26T01:57:52.323Z,974.74
2023-03-26T01:58:52.294Z,974.75
2023-03-26T01:59:52.304Z,974.76
2023-03-26T02:00:52.271Z,974.72
2023-03-26T02:01:52.401Z,974.78
2023-03-26T02:02:52.350Z,974.73
2023-03-26T02:03:52.288Z,974.75
2023-03-26T02:04:52.248Z,974.73
2023-03-26T02:05:52.642Z,974.75
2023-03-26T02:06:52.258Z,974.75
2023-03-26T02:07:52.277Z,974.76
2023-03-26T02:08:52.224Z,974.73
2023-03-26T02:09:52.255Z,974.75
2023-03-26T02:10:52.197Z,974.75
2023-03-26T02:11:52.222Z,974.72
2023-03-26T02:12:52.233Z,974.66
2023-03-26T02:13:52.209Z,974.72
2023-03-26T02:14:52.178Z,974.70
2023-03-26T02:15:52.398Z,974.68
2023-03-26T02:16:52.169Z,974.65
2023-03-26T02:17:52.333Z,974.66
2023-03-26T02:18:52.170Z,974.62
2023-03-26T02:19:52.153Z,974.63
2023-03-26T02:20:52.149Z,974.63
2023-03-26T02:21:52.172Z,974.64
2023-03-26T02:22:52.161Z,974.62
2023-03-26T02:23:52.138Z,974.62
2023-03-26T02:24:52.133Z,974.57
2023-03-26T02:25:52.431Z,974.56
2023-03-26T02:26:52.100Z,974.54
2023-03-26T02:27:52.123Z,974.56
2023-03-26T02:28:52.090Z,974.54
2023-03-26T02:29:52.111Z,974.54
2023-03-26T02:30:52.075Z,974.53
2023-03-26T02:31:52.103Z,974.52
2023-03-26T02:32:52.115Z,974.52
2023-03-26T02:33:52.058Z,974.53
2023-03-26T02:34:52.067Z,974.54
2023-03-26T02:35:52.276Z,974.51
2023-03-26T02:36:52.116Z,974.48
2023-03-26T02:37:52.056Z,974.47
2023-03-26T02:38:52.020Z,974.46
2023-03-26T02:39:52.064Z,974.41
2023-03-26T02:40:51.999Z,974.41
2023-03-26T02:41:52.051Z,974.40
2023-03-26T02:42:51.987Z,974.41
2023-03-26T02:43:52.003Z,974.42
2023-03-26T02:44:51.990Z,974.41
2023-03-26T02:45:52.061Z,974.38
2023-03-26T02:46:51.970Z,974.40
2023-03-26T02:47:52.008Z,974.40
2023-03-26T02:48:52.021Z,974.40
2023-03-26T02:49:51.974Z,974.38
2023-03-26T02:50:51.933Z,974.37
2023-03-26T02:51:51.949Z,974.35
2023-03-26T02:52:51.921Z,974.35
2023-03-26T02:53:51.950Z,974.35
2023-03-26T02:54:51.958Z,974.35
2023-03-26T02:55:52.182Z,974.28
2023-03-26T02:56:51.949Z,974.29
2023-03-26T02:57:51.909Z,974.27
2023-03-26T02:58:51.903Z,974.27
2023-03-26T02:59:51.915Z,974.24
2023-03-26T03:00:51.922Z,974.22
2023-03-26T03:01:51.886Z,974.20
2023-03-26T03:02:51.983Z,974.19
2023-03-26T03:03:51.905Z,974.20
2023-03-26T03:04:51.887Z,974.21
2023-03-26T03:05:52.053Z,974.16
2023-03-26T03:06:51.839Z,974.17
2023-03-26T03:07:51.852Z,974.14
2023-03-26T03:08:51.853Z,974.11
2023-03-26T03:09:51.921Z,974.11
2023-03-26T03:10:51.820Z,974.11
2023-03-26T03:11:51.839Z,974.10
2023-03-26T03:12:51.815Z,974.09
2023-03-26T03:13:51.827Z,974.07
2023-03-26T03:14:51.806Z,974.05
2023-03-26T03:15:51.832Z,974.06
2023-03-26T03:16:51.804Z,974.07
2023-03-26T03:17:51.853Z,974.09
2023-03-26T03:18:51.791Z,974.09
2023-03-26T03:19:51.768Z,974.11
2023-03-26T03:20:51.744Z,974.07
2023-03-26T03:21:51.751Z,974.03
2023-03-26T03:22:51.732Z,974.03
2023-03-26T03:23:51.747Z,973.99
2023-03-26T03:24:51.740Z,973.97
2023-03-26T03:25:51.773Z,973.93
2023-03-26T03:26:51.719Z,973.94
2023-03-26T03:27:51.731Z,973.93
2023-03-26T03:28:51.693Z,973.94
2023-03-26T03:29:51.728Z,973.90
2023-03-26T03:30:51.726Z,973.88
2023-03-26T03:31:51.690Z,973.89
2023-03-26T03:32:51.682Z,973.88
2023-03-26T03:33:51.676Z,973.88
2023-03-26T03:34:51.644Z,973.89
2023-03-26T03:35:51.717Z,973.90
2023-03-26T03:36:51.665Z,973.90
2023-03-26T03:37:51.667Z,973.91
2023-03-26T03:38:51.632Z,973.91
2023-03-26T03:39:51.642Z,973.90
2023-03-26T03:40:51.617Z,973.91
2023-03-26T03:41:51.644Z,973.90
2023-03-26T03:42:51.640Z,973.88
2023-03-26T03:43:51.607Z,973.89
2023-03-26T03:44:51.647Z,973.87
2023-03-26T03:45:51.631Z,973.88
2023-03-26T03:46:51.603Z,973.87
2023-03-26T03:47:51.583Z,973.89
2023-03-26T03:48:51.574Z,973.89
2023-03-26T03:49:51.557Z,973.88
2023-03-26T03:50:51.534Z,973.89
2023-03-26T03:51:51.554Z,973.88
2023-03-26T03:52:51.546Z,973.85
2023-03-26T03:53:51.538Z,973.86
2023-03-26T03:54:51.536Z,973.86
2023-03-26T03:55:51.578Z,973.85
2023-03-26T03:56:51.522Z,973.83
2023-03-26T03:57:51.544Z,973.82
2023-03-26T03:58:51.507Z,973.82
2023-03-26T03:59:51.568Z,973.80
2023-03-26T04:00:51.501Z,973.79
2023-03-26T04:01:51.489Z,973.77
2023-03-26T04:02:51.521Z,973.76
2023-03-26T04:03:51.511Z,973.73
2023-03-26T04:04:51.455Z,973.72
2023-03-26T04:05:51.493Z,973.71
2023-03-26T04:06:51.439Z,973.72
2023-03-26T04:07:51.459Z,973.71
2023-03-26T04:08:51.484Z,973.71
2023-03-26T04:09:51.432Z,973.72
2023-03-26T04:10:51.484Z,973.70
2023-03-26T04:11:51.412Z,973.68
2023-03-26T04:12:51.385Z,973.66
2023-03-26T04:13:51.410Z,973.64
2023-03-26T04:14:51.404Z,973.64
2023-03-26T04:15:51.427Z,973.62
2023-03-26T04:16:51.387Z,973.60
2023-03-26T04:17:51.418Z,973.59
2023-03-26T04:18:51.354Z,973.57
2023-03-26T04:19:51.363Z,973.58
2023-03-26T04:20:51.394Z,973.61
2023-03-26T04:21:51.339Z,973.63
2023-03-26T04:22:51.316Z,973.63
2023-03-26T04:23:51.313Z,973.62
2023-03-26T04:24:51.312Z,973.58
2023-03-26T04:25:51.352Z,973.56
2023-03-26T04:26:51.273Z,973.55
2023-03-26T04:27:51.292Z,973.54
2023-03-26T04:28:51.262Z,973.55
2023-03-26T04:29:51.293Z,973.56
2023-03-26T04:30:51.275Z,973.58
2023-03-26T04:31:51.311Z,973.57
2023-03-26T04:32:51.294Z,973.59
2023-03-26T04:33:51.262Z,973.58
2023-03-26T04:34:51.288Z,973.57
2023-03-26T04:35:51.284Z,973.55
2023-03-26T04:36:51.222Z,973.55
2023-03-26T04:37:51.240Z,973.55
2023-03-26T04:38:51.218Z,973.54
2023-03-26T04:39:51.213Z,973.54
2023-03-26T04:40:51.181Z,973.55
2023-03-26T04:41:51.200Z,973.53
2023-03-26T04:42:51.171Z,973.52
2023-03-26T04:43:51.209Z,973.52
2023-03-26T04:44:51.194Z,973.52
2023-03-26T04:45:51.167Z,973.53
2023-03-26T04:46:51.200Z,973.53
2023-03-26T04:47:51.216Z,973.53
2023-03-26T04:48:51.148Z,973.52
2023-03-26T04:49:51.187Z,973.49
2023-03-26T04:50:51.148Z,973.46
2023-03-26T04:51:51.140Z,973.43
2023-03-26T04:52:51.123Z,973.40
2023-03-26T04:53:51.143Z,973.36
2023-03-26T04:54:51.116Z,973.37
2023-03-26T04:55:51.133Z,973.34
2023-03-26T04:56:51.142Z,973.33
2023-03-26T04:57:51.149Z,973.32
2023-03-26T04:58:51.084Z,973.30
2023-03-26T04:59:51.090Z,973.28
2023-03-26T05:00:51.096Z,973.25
2023-03-26T05:01:51.075Z,973.23
2023-03-26T05:02:51.151Z,973.22
2023-03-26T05:03:51.098Z,973.21
2023-03-26T05:04:51.051Z,973.18
2023-03-26T05:05:51.110Z,973.18
2023-03-26T05:06:51.047Z,973.17
2023-03-26T05:07:51.062Z,973.16
2023-03-26T05:08:51.081Z,973.16
2023-03-26T05:09:51.139Z,973.14
2023-03-26T05:10:51.040Z,973.13
2023-03-26T05:11:51.060Z,973.12
2023-03-26T05:12:51.001Z,973.11
2023-03-26T05:13:51.016Z,973.09
2023-03-26T05:14:51.003Z,973.09
2023-03-26T05:15:51.004Z,973.08
2023-03-26T05:16:51.075Z,973.06
2023-03-26T05:17:51.011Z,973.08
2023-03-26T05:18:50.985Z,973.08
2023-03-26T05:19:50.972Z,973.08
2023-03-26T05:20:50.967Z,973.06
2023-03-26T05:21:50.966Z,973.04
2023-03-26T05:22:50.968Z,973.03
2023-03-26T05:23:50.982Z,973.03
2023-03-26T05:24:50.941Z,973.02
2023-03-26T05:25:50.984Z,973.01
2023-03-26T05:26:50.916Z,973.01
2023-03-26T05:27:50.948Z,973.03
2023-03-26T05:28:52.576Z,973.04
2023-03-26T05:29:50.912Z,973.05
2023-03-26T05:30:50.908Z,973.04
2023-03-26T05:31:50.902Z,973.03
2023-03-26T05:32:50.950Z,973.02
2023-03-26T05:33:50.943Z,973.00
2023-03-26T05:34:50.887Z,972.99
2023-03-26T05:35:50.914Z,972.99
2023-03-26T05:36:50.858Z,972.97
2023-03-26T05:37:50.921Z,972.92
2023-03-26T05:38:52.613Z,972.89
2023-03-26T05:39:50.862Z,972.89
2023-03-26T05:40:50.837Z,972.87
2023-03-26T05:41:50.856Z,972.85
2023-03-26T05:42:50.813Z,972.83
2023-03-26T05:43:50.864Z,972.81
2023-03-26T05:44:50.835Z,972.79
2023-03-26T05:45:50.828Z,972.77
2023-03-26T05:46:50.803Z,972.76
2023-03-26T05:47:50.879Z,972.75
2023-03-26T05:48:50.793Z,972.75
2023-03-26T05:49:50.807Z,972.75
2023-03-26T05:50:50.793Z,972.73
2023-03-26T05:51:50.778Z,972.72
2023-03-26T05:52:50.765Z,972.73
2023-03-26T05:53:50.776Z,972.73
2023-03-26T05:54:50.765Z,972.73
2023-03-26T05:55:50.794Z,972.72
2023-03-26T05:56:50.789Z,972.72
2023-03-26T05:57:50.741Z,972.72
2023-03-26T05:58:51.921Z,972.71
2023-03-26T05:59:50.745Z,972.71
2023-03-26T06:00:50.700Z,972.70
2023-03-26T06:01:50.729Z,972.66
2023-03-26T06:02:50.737Z,972.63
2023-03-26T06:03:51.809Z,972.62
2023-03-26T06:04:50.746Z,972.59
2023-03-26T06:05:50.683Z,972.57
2023-03-26T06:06:50.713Z,972.55
2023-03-26T06:07:50.680Z,972.53
2023-03-26T06:09:01.813Z,972.50
2023-03-26T06:09:51.672Z,972.51
2023-03-26T06:10:50.630Z,972.51
2023-03-26T06:11:50.657Z,972.52
2023-03-26T06:12:50.649Z,972.52
2023-03-26T06:13:50.627Z,972.52
2023-03-26T06:14:50.607Z,972.50
2023-03-26T06:15:50.679Z,972.50
2023-03-26T06:16:50.631Z,972.48
2023-03-26T06:17:50.611Z,972.48
2023-03-26T06:18:50.586Z,972.46
2023-03-26T06:19:51.588Z,972.45
2023-03-26T06:20:50.566Z,972.45
2023-03-26T06:21:50.596Z,972.44
2023-03-26T06:22:50.564Z,972.42
2023-03-26T06:23:50.561Z,972.42
2023-03-26T06:24:50.544Z,972.41
2023-03-26T06:25:50.527Z,972.41
2023-03-26T06:26:50.512Z,972.42
2023-03-26T06:27:50.535Z,972.42
2023-03-26T06:28:50.522Z,972.42
2023-03-26T06:29:50.522Z,972.41
2023-03-26T06:30:50.591Z,972.39
2023-03-26T06:31:50.482Z,972.37
2023-03-26T06:32:50.572Z,972.36
2023-03-26T06:33:50.495Z,972.34
2023-03-26T06:34:50.485Z,972.32
2023-03-26T06:35:50.589Z,972.30
2023-03-26T06:36:50.464Z,972.28
2023-03-26T06:37:50.453Z,972.27
2023-03-26T06:38:50.442Z,972.27
2023-03-26T06:39:50.495Z,972.27
2023-03-26T06:40:50.480Z,972.28
2023-03-26T06:41:50.421Z,972.30
2023-03-26T06:43:08.486Z,972.32
2023-03-26T06:43:51.436Z,972.33
2023-03-26T06:44:50.428Z,972.35
2023-03-26T06:45:50.407Z,972.34
2023-03-26T06:46:50.461Z,972.33
2023-03-26T06:47:50.414Z,972.32
2023-03-26T06:48:50.357Z,972.31
2023-03-26T06:49:50.385Z,972.30
2023-03-26T06:50:50.377Z,972.29
2023-03-26T06:51:50.382Z,972.29
2023-03-26T06:52:50.355Z,972.29
2023-03-26T06:53:50.367Z,972.28
2023-03-26T06:54:50.339Z,972.28
2023-03-26T06:55:50.384Z,972.28
2023-03-26T06:56:50.364Z,972.28
2023-03-26T06:57:50.316Z,972.25
2023-03-26T06:58:50.316Z,972.25
2023-03-26T06:59:50.302Z,972.23
2023-03-26T07:00:50.321Z,972.21
2023-03-26T07:01:50.312Z,972.19
2023-03-26T07:02:50.306Z,972.19
2023-03-26T07:03:50.291Z,972.19
2023-03-26T07:04:50.264Z,972.19
2023-03-26T07:05:50.269Z,972.18
2023-03-26T07:06:50.242Z,972.18
2023-03-26T07:07:50.251Z,972.18
2023-03-26T07:08:50.267Z,972.17
2023-03-26T07:09:50.264Z,972.17
2023-03-26T07:10:50.221Z,972.17
2023-03-26T07:11:50.229Z,972.16
2023-03-26T07:12:50.199Z,972.14
2023-03-26T07:13:50.242Z,972.12
2023-03-26T07:14:50.586Z,972.11
2023-03-26T07:15:50.201Z,972.10
2023-03-26T07:16:50.193Z,972.08
2023-03-26T07:17:50.232Z,972.06
2023-03-26T07:18:50.162Z,972.05
2023-03-26T07:19:50.392Z,972.02
2023-03-26T07:20:50.207Z,971.99
2023-03-26T07:21:50.165Z,971.96
2023-03-26T07:22:50.159Z,971.94
2023-03-26T07:23:50.186Z,971.93
2023-03-26T07:24:50.123Z,971.92
2023-03-26T07:25:50.137Z,971.92
2023-03-26T07:26:50.146Z,971.92
2023-03-26T07:27:50.151Z,971.92
2023-03-26T07:29:03.811Z,971.93
2023-03-26T07:29:51.127Z,971.92
2023-03-26T07:30:50.110Z,971.92
2023-03-26T07:31:50.138Z,971.90
2023-03-26T07:32:50.125Z,971.90
2023-03-26T07:33:50.104Z,971.87
2023-03-26T07:34:50.053Z,971.85
2023-03-26T07:35:50.092Z,971.84
2023-03-26T07:36:50.062Z,971.83
2023-03-26T07:37:50.059Z,971.82
2023-03-26T07:38:50.034Z,971.81
2023-03-26T07:39:50.085Z,971.80
2023-03-26T07:40:50.043Z,971.79
2023-03-26T07:41:50.070Z,971.79
2023-03-26T07:42:49.994Z,971.80
2023-03-26T07:43:50.023Z,971.80
2023-03-26T07:44:49.989Z,971.79
2023-03-26T07:45:50.050Z,971.77
2023-03-26T07:46:50.034Z,971.77
2023-03-26T07:47:50.048Z,971.76
2023-03-26T07:48:49.990Z,971.73
2023-03-26T07:49:49.993Z,971.74
2023-03-26T07:50:49.942Z,971.72
2023-03-26T07:51:49.948Z,971.71
2023-03-26T07:52:49.934Z,971.69
2023-03-26T07:53:49.959Z,971.66
2023-03-26T07:54:49.941Z,971.65
2023-03-26T07:55:49.931Z,971.63
2023-03-26T07:56:50.008Z,971.60
2023-03-26T07:57:49.910Z,971.58
2023-03-26T07:58:49.885Z,971.57
2023-03-26T07:59:49.899Z,971.56
2023-03-26T08:00:49.906Z,971.53
2023-03-26T08:01:49.904Z,971.51
2023-03-26T08:02:49.928Z,971.49
2023-03-26T08:03:49.941Z,971.49
2023-03-26T08:04:49.925Z,971.46
2023-03-26T08:05:49.856Z,971.45
2023-03-26T08:06:49.864Z,971.45
2023-03-26T08:07:49.849Z,971.44
2023-03-26T08:08:49.845Z,971.43
2023-03-26T08:09:49.844Z,971.41
2023-03-26T08:10:49.850Z,971.39
2023-03-26T08:11:49.839Z,971.38
2023-03-26T08:12:49.818Z,971.35
2023-03-26T08:13:49.812Z,971.34
2023-03-26T08:14:49.782Z,971.33
2023-03-26T08:15:49.932Z,971.32
2023-03-26T08:16:49.776Z,971.31
2023-03-26T08:17:49.802Z,971.31
2023-03-26T08:18:49.758Z,971.31
2023-03-26T08:19:49.780Z,971.30
2023-03-26T08:20:49.737Z,971.31
2023-03-26T08:21:49.783Z,971.31
2023-03-26T08:22:49.744Z,971.31
2023-03-26T08:23:51.024Z,971.32
2023-03-26T08:24:49.725Z,971.33
2023-03-26T08:25:49.733Z,971.33
2023-03-26T08:26:49.737Z,971.32
2023-03-26T08:27:49.716Z,971.31
2023-03-26T08:28:49.720Z,971.29
2023-03-26T08:29:49.696Z,971.27
2023-03-26T08:30:49.726Z,971.26
2023-03-26T08:31:49.708Z,971.24
2023-03-26T08:32:49.709Z,971.24
2023-03-26T08:33:49.670Z,971.23
2023-03-26T08:34:49.692Z,971.23
2023-03-26T08:35:49.721Z,971.24
2023-03-26T08:36:49.625Z,971.24
2023-03-26T08:37:49.678Z,971.23
2023-03-26T08:38:49.662Z,971.23
2023-03-26T08:39:49.694Z,971.23
2023-03-26T08:40:49.625Z,971.22
2023-03-26T08:41:49.671Z,971.20
2023-03-26T08:42:49.605Z,971.19
2023-03-26T08:43:49.601Z,971.19
2023-03-26T08:44:49.641Z,971.18
2023-03-26T08:45:49.589Z,971.18
2023-03-26T08:46:49.593Z,971.18
2023-03-26T08:47:49.609Z,971.17
2023-03-26T08:48:49.589Z,971.16
2023-03-26T08:49:49.573Z,971.15
2023-03-26T08:50:49.586Z,971.13
2023-03-26T08:51:49.547Z,971.12
2023-03-26T08:52:49.611Z,971.11
2023-03-26T08:53:49.532Z,971.09
2023-03-26T08:54:49.516Z,971.08
2023-03-26T08:55:49.543Z,971.07
2023-03-26T08:56:49.580Z,971.06
2023-03-26T08:57:49.536Z,971.06
2023-03-26T08:58:49.507Z,971.05
2023-03-26T08:59:49.481Z,971.03
2023-03-26T09:00:49.462Z,971.01
2023-03-26T09:01:49.514Z,971.02
2023-03-26T09:02:49.476Z,971.01
2023-03-26T09:03:49.518Z,971.03
2023-03-26T09:04:49.456Z,971.03
2023-03-26T09:05:49.434Z,971.02
2023-03-26T09:06:49.502Z,971.00
2023-03-26T09:07:49.433Z,971.00
2023-03-26T09:08:54.250Z,970.99
2023-03-26T09:09:50.494Z,970.97
2023-03-26T09:10:49.386Z,970.96
2023-03-26T09:11:49.428Z,970.94
2023-03-26T09:12:49.388Z,970.93
2023-03-26T09:13:49.408Z,970.92
2023-03-26T09:14:49.383Z,970.90
2023-03-26T09:15:49.426Z,970.88
2023-03-26T09:16:49.373Z,970.86
2023-03-26T09:17:49.494Z,970.85
2023-03-26T09:18:49.334Z,970.84
2023-03-26T09:19:49.389Z,970.83
2023-03-26T09:20:49.331Z,970.82
2023-03-26T09:21:49.358Z,970.80
2023-03-26T09:22:49.314Z,970.80
2023-03-26T09:23:49.340Z,970.79
2023-03-26T09:24:49.309Z,970.79
2023-03-26T09:25:49.323Z,970.78
2023-03-26T09:26:49.280Z,970.79
2023-03-26T09:27:49.288Z,970.78
2023-03-26T09:28:49.270Z,970.77
2023-03-26T09:29:49.327Z,970.75
2023-03-26T09:30:49.279Z,970.75
2023-03-26T09:31:49.337Z,970.73
2023-03-26T09:32:49.293Z,970.73
2023-03-26T09:33:49.287Z,970.72
2023-03-26T09:34:49.232Z,970.70
2023-03-26T09:35:49.267Z,970.70
2023-03-26T09:36:49.218Z,970.70
2023-03-26T09:37:57.297Z,970.69
2023-03-26T09:38:50.207Z,970.70
2023-03-26T09:39:49.246Z,970.69
2023-03-26T09:40:49.215Z,970.70
2023-03-26T09:41:49.248Z,970.70
2023-03-26T09:42:49.178Z,970.70
2023-03-26T09:43:49.227Z,970.70
2023-03-26T09:44:49.194Z,970.70
2023-03-26T09:45:49.232Z,970.70
2023-03-26T09:46:49.140Z,970.70
2023-03-26T09:47:49.187Z,970.71
2023-03-26T09:48:49.136Z,970.71
2023-03-26T09:49:49.178Z,970.71
2023-03-26T09:50:49.139Z,970.71
2023-03-26T09:51:49.142Z,970.71
2023-03-26T09:52:49.118Z,970.72
2023-03-26T09:53:49.132Z,970.72
2023-03-26T09:54:49.096Z,970.70
2023-03-26T09:55:49.145Z,970.70
2023-03-26T09:56:49.093Z,970.69
2023-03-26T09:57:49.124Z,970.69
2023-03-26T09:58:49.056Z,970.69
2023-03-26T09:59:49.081Z,970.68
2023-03-26T10:00:49.115Z,970.66
2023-03-26T10:01:49.060Z,970.66
2023-03-26T10:02:49.050Z,970.64
2023-03-26T10:03:49.061Z,970.64
2023-03-26T10:04:49.111Z,970.62
2023-03-26T10:05:49.027Z,970.61
2023-03-26T10:06:49.055Z,970.61
2023-03-26T10:07:49.048Z,970.59
2023-03-26T10:08:49.020Z,970.59
2023-03-26T10:09:49.001Z,970.57
2023-03-26T10:10:49.016Z,970.57
2023-03-26T10:11:48.993Z,970.56
2023-03-26T10:12:48.967Z,970.56
2023-03-26T10:13:49.002Z,970.56
2023-03-26T10:14:48.956Z,970.54
2023-03-26T10:15:48.984Z,970.53
2023-03-26T10:16:49.006Z,970.52
2023-03-26T10:17:49.032Z,970.53
2023-03-26T10:18:48.952Z,970.52
2023-03-26T10:19:48.940Z,970.51
2023-03-26T10:20:48.925Z,970.51
2023-03-26T10:21:48.951Z,970.50
2023-03-26T10:22:48.915Z,970.49
2023-03-26T10:23:48.937Z,970.48
2023-03-26T10:24:48.889Z,970.48
2023-03-26T10:25:48.929Z,970.46
2023-03-26T10:27:09.700Z,970.44
2023-03-26T10:27:49.902Z,970.46
2023-03-26T10:28:48.871Z,970.43
2023-03-26T10:29:48.894Z,970.44
2023-03-26T10:30:48.904Z,970.44
2023-03-26T10:31:48.853Z,970.44
2023-03-26T10:32:48.913Z,970.43
2023-03-26T10:33:48.869Z,970.41
2023-03-26T10:34:48.834Z,970.38
2023-03-26T10:35:48.905Z,970.38
2023-03-26T10:36:48.793Z,970.36
2023-03-26T10:37:48.811Z,970.34
2023-03-26T10:38:48.780Z,970.34
2023-03-26T10:39:48.823Z,970.33
2023-03-26T10:40:48.777Z,970.33
2023-03-26T10:41:48.805Z,970.32
2023-03-26T10:42:48.764Z,970.32
2023-03-26T10:43:57.843Z,970.32
2023-03-26T10:44:49.789Z,970.32
2023-03-26T10:45:48.794Z,970.33
2023-03-26T10:46:48.744Z,970.33
2023-03-26T10:47:48.771Z,970.31
2023-03-26T10:48:48.716Z,970.31
2023-03-26T10:49:48.745Z,970.30
2023-03-26T10:50:48.732Z,970.29
2023-03-26T10:51:48.726Z,970.27
2023-03-26T10:52:48.720Z,970.25
2023-03-26T10:53:48.734Z,970.24
2023-03-26T10:54:48.684Z,970.23
2023-03-26T10:55:48.692Z,970.23
2023-03-26T10:56:48.693Z,970.23
2023-03-26T10:57:48.672Z,970.22
2023-03-26T10:58:50.062Z,970.21
2023-03-26T10:59:48.676Z,970.22
2023-03-26T11:00:48.640Z,970.21
2023-03-26T11:01:48.769Z,970.21
2023-03-26T11:02:48.710Z,970.24
2023-03-26T11:03:48.649Z,970.22
2023-03-26T11:04:48.642Z,970.29
2023-03-26T11:05:48.677Z,970.17
2023-03-26T11:06:48.632Z,970.27
2023-03-26T11:07:48.636Z,970.26
2023-03-26T11:08:48.586Z,970.32
2023-03-26T11:09:48.583Z,970.34
2023-03-26T11:10:48.581Z,970.29
2023-03-26T11:11:48.621Z,970.35
2023-03-26T11:12:48.581Z,970.30
2023-03-26T11:13:48.599Z,970.35
2023-03-26T11:14:48.556Z,970.37
2023-03-26T11:15:48.564Z,970.35
2023-03-26T11:16:48.549Z,970.35
2023-03-26T11:17:48.564Z,970.36
2023-03-26T11:18:48.565Z,970.34
2023-03-26T11:19:48.542Z,970.35
2023-03-26T11:20:48.505Z,970.34
2023-03-26T11:21:48.518Z,970.34
2023-03-26T11:22:48.496Z,970.32
2023-03-26T11:23:48.523Z,970.30
2023-03-26T11:24:49.501Z,970.29
2023-03-26T11:25:48.504Z,970.30
2023-03-26T11:26:48.468Z,970.30
2023-03-26T11:27:48.486Z,970.26
2023-03-26T11:29:03.278Z,970.26
2023-03-26T11:29:49.467Z,970.25
2023-03-26T11:30:48.465Z,970.24
2023-03-26T11:31:48.526Z,970.24
2023-03-26T11:32:48.538Z,970.22
2023-03-26T11:33:48.442Z,970.20
2023-03-26T11:34:48.430Z,970.19
2023-03-26T11:35:48.477Z,970.18
2023-03-26T11:36:48.439Z,970.17
2023-03-26T11:37:48.449Z,970.17
2023-03-26T11:38:55.405Z,970.16
2023-03-26T11:39:48.409Z,970.17
2023-03-26T11:40:48.376Z,970.16
2023-03-26T11:41:48.401Z,970.15
2023-03-26T11:42:48.377Z,970.15
2023-03-26T11:43:48.414Z,970.13
2023-03-26T11:44:48.355Z,970.12
2023-03-26T11:45:48.399Z,970.11
2023-03-26T11:46:48.382Z,970.09
2023-03-26T11:47:48.370Z,970.09
2023-03-26T11:48:48.339Z,970.07
2023-03-26T11:49:48.349Z,970.06
2023-03-26T11:50:48.321Z,970.03
2023-03-26T11:51:48.338Z,970.03
2023-03-26T11:52:48.308Z,970.03
2023-03-26T11:53:48.322Z,970.02
2023-03-26T11:54:48.280Z,970.01
2023-03-26T11:55:48.331Z,970.01
2023-03-26T11:57:04.905Z,970.01
2023-03-26T11:57:49.280Z,970.00
2023-03-26T11:58:48.256Z,970.00
2023-03-26T11:59:56.439Z,970.00
2023-03-26T12:00:49.253Z,970.00
2023-03-26T12:01:48.298Z,969.99
2023-03-26T12:02:48.279Z,969.97
2023-03-26T12:03:48.258Z,969.96
2023-03-26T12:04:48.255Z,969.94
2023-03-26T12:05:48.223Z,969.95
2023-03-26T12:06:48.255Z,969.93
2023-03-26T12:07:48.231Z,969.91
2023-03-26T12:08:48.169Z,969.90
2023-03-26T12:09:48.188Z,969.88
2023-03-26T12:10:48.160Z,969.86
2023-03-26T12:11:48.186Z,969.82
2023-03-26T12:12:48.185Z,969.79
2023-03-26T12:13:48.227Z,969.75
2023-03-26T12:14:48.145Z,969.72
2023-03-26T12:15:48.175Z,969.70
2023-03-26T12:16:48.152Z,969.68
2023-03-26T12:17:48.227Z,969.66
2023-03-26T12:18:48.122Z,969.65
2023-03-26T12:19:48.126Z,969.63
2023-03-26T12:20:48.134Z,969.62
2023-03-26T12:21:48.138Z,969.61
2023-03-26T12:22:48.109Z,969.60
2023-03-26T12:23:48.148Z,969.61
2023-03-26T12:24:48.068Z,969.59
2023-03-26T12:25:48.084Z,969.59
2023-03-26T12:26:48.049Z,969.57
2023-03-26T12:27:48.065Z,969.55
2023-03-26T12:28:48.066Z,969.54